createdAt,value
2017-05-20T00:00:18.655Z,75.34
2017-05-20T00:01:19.350Z,75.62
2017-05-20T00:02:19.962Z,74.96
2017-05-20T00:03:20.601Z,75.24
2017-05-20T00:04:21.210Z,75.15
2017-05-20T00:05:21.819Z,75.05
2017-05-20T00:06:22.482Z,75.43
2017-05-20T00:07:23.122Z,75.34
2017-05-20T00:08:23.734Z,75.43
2017-05-20T00:09:24.337Z,75.15
2017-05-20T00:10:24.949Z,75.24
2017-05-20T00:11:25.553Z,75.05
2017-05-20T00:12:26.164Z,75.15
2017-05-20T00:13:26.775Z,75.05
2017-05-20T00:14:27.382Z,75.34
2017-05-20T00:15:27.990Z,75.34
2017-05-20T00:16:28.595Z,74.96
2017-05-20T00:17:29.202Z,75.15
2017-05-20T00:18:29.811Z,75.34
2017-05-20T00:19:30.419Z,75.53
2017-05-20T00:20:31.026Z,75.15
2017-05-20T00:21:31.840Z,75.34
2017-05-20T00:22:32.443Z,75.43
2017-05-20T00:23:33.050Z,75.53
2017-05-20T00:24:33.657Z,75.72
2017-05-20T00:25:34.264Z,75.62
2017-05-20T00:26:34.921Z,75.24
2017-05-20T00:27:35.529Z,75.43
2017-05-20T00:28:36.143Z,75.34
2017-05-20T00:29:36.748Z,75.05
2017-05-20T00:30:37.356Z,75.53
2017-05-20T00:31:38.011Z,75.72
2017-05-20T00:32:38.617Z,75.24
2017-05-20T00:33:39.225Z,75.62
2017-05-20T00:34:39.839Z,75.24
2017-05-20T00:35:40.445Z,75.15
2017-05-20T00:36:41.085Z,75.24
2017-05-20T00:37:41.694Z,75.15
2017-05-20T00:38:42.303Z,75.62
2017-05-20T00:39:42.909Z,75.24
2017-05-20T00:40:43.515Z,75.24
2017-05-20T00:41:44.178Z,75.24
2017-05-20T00:42:44.786Z,75.34
2017-05-20T00:43:45.425Z,75.24
2017-05-20T00:44:46.031Z,75.24
2017-05-20T00:45:46.638Z,75.24
2017-05-20T00:46:47.245Z,75.34
2017-05-20T00:47:47.851Z,75.43
2017-05-20T00:48:48.459Z,75.34
2017-05-20T00:49:49.068Z,75.15
2017-05-20T00:50:49.676Z,75.43
2017-05-20T00:51:50.333Z,75.59
2017-05-20T00:52:50.940Z,75.78
2017-05-20T00:53:51.554Z,76.25
2017-05-20T00:54:52.192Z,76.34
2017-05-20T00:55:52.797Z,76.44
2017-05-20T00:56:53.461Z,76.34
2017-05-20T00:57:54.066Z,76.15
2017-05-20T00:58:54.680Z,76.25
2017-05-20T00:59:55.285Z,76.82
2017-05-20T01:00:55.899Z,76.53
2017-05-20T01:01:56.502Z,76.72
2017-05-20T01:02:57.108Z,76.91
2017-05-20T01:03:57.714Z,76.72
2017-05-20T01:04:58.326Z,76.63
2017-05-20T01:05:58.928Z,76.63
2017-05-20T01:06:59.587Z,76.63
2017-05-20T01:08:00.196Z,76.63
2017-05-20T01:09:00.801Z,76.72
2017-05-20T01:10:01.407Z,76.63
2017-05-20T01:11:02.021Z,76.72
2017-05-20T01:12:02.675Z,76.91
2017-05-20T01:13:03.281Z,76.72
2017-05-20T01:14:03.889Z,76.82
2017-05-20T01:15:04.497Z,76.44
2017-05-20T01:16:05.106Z,76.25
2017-05-20T01:17:05.713Z,76.25
2017-05-20T01:18:06.354Z,76.53
2017-05-20T01:19:06.961Z,76.15
2017-05-20T01:20:07.569Z,75.96
2017-05-20T01:21:08.180Z,76.53
2017-05-20T01:22:08.785Z,76.06
2017-05-20T01:23:09.396Z,76.15
2017-05-20T01:24:10.010Z,76.06
2017-05-20T01:25:10.608Z,75.81
2017-05-20T01:26:11.215Z,76.06
2017-05-20T01:27:11.823Z,75.59
2017-05-20T01:28:12.432Z,75.68
2017-05-20T01:29:13.078Z,75.59
2017-05-20T01:30:13.689Z,75.68
2017-05-20T01:31:14.292Z,76.15
2017-05-20T01:32:14.949Z,76.15
2017-05-20T01:33:15.555Z,76.06
2017-05-20T01:34:16.161Z,76.06
2017-05-20T01:35:16.767Z,75.78
2017-05-20T01:36:17.373Z,75.96
2017-05-20T01:37:18.037Z,75.96
2017-05-20T01:38:18.640Z,76.25
2017-05-20T01:39:19.248Z,76.15
2017-05-20T01:40:19.888Z,75.68
2017-05-20T01:41:20.500Z,75.78
2017-05-20T01:42:21.103Z,75.49
2017-05-20T01:43:21.715Z,75.68
2017-05-20T01:44:22.318Z,75.87
2017-05-20T01:45:22.930Z,75.87
2017-05-20T01:46:23.540Z,75.87
2017-05-20T01:47:24.145Z,75.78
2017-05-20T01:48:24.753Z,75.87
2017-05-20T01:49:25.368Z,75.78
2017-05-20T01:50:25.976Z,75.78
2017-05-20T01:51:26.581Z,76.06
2017-05-20T01:52:27.188Z,75.21
2017-05-20T01:53:27.792Z,75.21
2017-05-20T01:54:28.399Z,75.12
2017-05-20T01:55:29.011Z,75.21
2017-05-20T01:56:29.613Z,75.31
2017-05-20T01:57:30.276Z,75.31
2017-05-20T01:58:30.887Z,75.21
2017-05-20T01:59:31.489Z,75.31
2017-05-20T02:00:32.129Z,74.74
2017-05-20T02:01:32.736Z,75.12
2017-05-20T02:02:33.391Z,75.21
2017-05-20T02:03:34.006Z,75.31
2017-05-20T02:04:34.608Z,75.31
2017-05-20T02:05:35.214Z,74.45
2017-05-20T02:06:35.820Z,74.93
2017-05-20T02:07:36.434Z,74.74
2017-05-20T02:08:37.045Z,74.55
2017-05-20T02:09:37.648Z,74.74
2017-05-20T02:10:38.255Z,74.83
2017-05-20T02:11:38.868Z,74.64
2017-05-20T02:12:39.476Z,74.74
2017-05-20T02:13:40.085Z,74.74
2017-05-20T02:14:40.689Z,74.74
2017-05-20T02:15:41.294Z,74.74
2017-05-20T02:16:41.906Z,74.74
2017-05-20T02:17:42.518Z,74.45
2017-05-20T02:18:43.122Z,74.55
2017-05-20T02:19:43.728Z,74.55
2017-05-20T02:20:44.335Z,74.83
2017-05-20T02:21:45.007Z,75.02
2017-05-20T02:22:45.607Z,74.64
2017-05-20T02:23:46.213Z,74.93
2017-05-20T02:24:46.821Z,75.31
2017-05-20T02:25:47.428Z,75.31
2017-05-20T02:26:48.034Z,75.31
2017-05-20T02:27:48.647Z,74.83
2017-05-20T02:28:49.252Z,75.31
2017-05-20T02:29:49.857Z,74.74
2017-05-20T02:30:50.464Z,75.31
2017-05-20T02:31:51.102Z,75.31
2017-05-20T02:32:51.808Z,75.21
2017-05-20T02:33:52.365Z,75.40
2017-05-20T02:34:52.971Z,74.55
2017-05-20T02:35:53.577Z,74.83
2017-05-20T02:36:54.187Z,74.83
2017-05-20T02:37:54.794Z,74.64
2017-05-20T02:38:55.405Z,74.74
2017-05-20T02:39:56.013Z,74.83
2017-05-20T02:40:56.617Z,74.64
2017-05-20T02:41:57.225Z,75.02
2017-05-20T02:42:57.882Z,74.93
2017-05-20T02:43:58.490Z,74.64
2017-05-20T02:44:59.098Z,74.64
2017-05-20T02:45:59.706Z,74.64
2017-05-20T02:47:00.310Z,74.55
2017-05-20T02:48:00.966Z,74.55
2017-05-20T02:49:01.573Z,74.83
2017-05-20T02:50:02.185Z,74.83
2017-05-20T02:51:02.791Z,74.83
2017-05-20T02:52:03.393Z,74.55
2017-05-20T02:53:04.001Z,74.55
2017-05-20T02:54:04.607Z,74.74
2017-05-20T02:55:05.214Z,74.74
2017-05-20T02:56:05.822Z,74.74
2017-05-20T02:57:06.437Z,74.64
2017-05-20T02:58:07.039Z,74.45
2017-05-20T02:59:07.679Z,74.55
2017-05-20T03:00:08.289Z,74.74
2017-05-20T03:01:08.899Z,75.02
2017-05-20T03:02:09.510Z,74.83
2017-05-20T03:03:10.170Z,74.55
2017-05-20T03:04:10.780Z,74.83
2017-05-20T03:05:11.382Z,74.64
2017-05-20T03:06:11.989Z,74.74
2017-05-20T03:07:12.595Z,74.55
2017-05-20T03:08:13.240Z,74.64
2017-05-20T03:09:13.842Z,74.83
2017-05-20T03:10:14.455Z,74.74
2017-05-20T03:11:15.064Z,74.83
2017-05-20T03:12:15.703Z,75.02
2017-05-20T03:13:16.316Z,74.55
2017-05-20T03:14:16.919Z,74.55
2017-05-20T03:15:17.525Z,75.40
2017-05-20T03:16:18.131Z,75.02
2017-05-20T03:17:18.738Z,74.74
2017-05-20T03:18:19.352Z,75.31
2017-05-20T03:19:19.957Z,75.31
2017-05-20T03:20:20.601Z,75.21
2017-05-20T03:21:21.236Z,75.40
2017-05-20T03:22:21.847Z,75.12
2017-05-20T03:23:22.485Z,74.74
2017-05-20T03:24:23.097Z,74.64
2017-05-20T03:25:23.706Z,74.55
2017-05-20T03:26:24.310Z,74.45
2017-05-20T03:27:24.920Z,74.74
2017-05-20T03:28:25.581Z,74.64
2017-05-20T03:29:26.183Z,74.93
2017-05-20T03:30:26.822Z,74.64
2017-05-20T03:31:27.460Z,74.64
2017-05-20T03:32:28.073Z,74.64
2017-05-20T03:33:28.676Z,74.64
2017-05-20T03:34:29.282Z,74.64
2017-05-20T03:35:29.888Z,74.83
2017-05-20T03:36:30.532Z,74.51
2017-05-20T03:37:31.136Z,75.12
2017-05-20T03:38:31.740Z,75.31
2017-05-20T03:39:32.350Z,75.40
2017-05-20T03:40:32.957Z,75.21
2017-05-20T03:41:33.563Z,75.17
2017-05-20T03:42:34.169Z,75.21
2017-05-20T03:43:34.776Z,75.21
2017-05-20T03:44:35.383Z,75.31
2017-05-20T03:45:35.993Z,75.02
2017-05-20T03:46:36.596Z,74.83
2017-05-20T03:47:37.202Z,74.74
2017-05-20T03:48:37.863Z,74.74
2017-05-20T03:49:38.474Z,74.74
2017-05-20T03:50:39.077Z,74.93
2017-05-20T03:51:39.684Z,74.64
2017-05-20T03:52:40.290Z,75.02
2017-05-20T03:53:40.896Z,74.45
2017-05-20T03:54:41.511Z,74.83
2017-05-20T03:55:42.114Z,74.64
2017-05-20T03:56:42.722Z,74.74
2017-05-20T03:57:43.329Z,74.64
2017-05-20T03:58:43.945Z,74.74
2017-05-20T03:59:44.548Z,74.64
2017-05-20T04:00:45.154Z,74.64
2017-05-20T04:01:45.768Z,74.74
2017-05-20T04:02:46.378Z,74.74
2017-05-20T04:03:46.982Z,74.74
2017-05-20T04:04:47.595Z,74.83
2017-05-20T04:05:48.202Z,74.74
2017-05-20T04:06:48.809Z,74.74
2017-05-20T04:07:49.417Z,74.74
2017-05-20T04:08:50.075Z,74.17
2017-05-20T04:09:50.682Z,74.17
2017-05-20T04:10:51.288Z,74.17
2017-05-20T04:11:51.893Z,74.55
2017-05-20T04:12:52.500Z,74.64
2017-05-20T04:13:53.165Z,74.55
2017-05-20T04:14:53.774Z,74.45
2017-05-20T04:15:54.385Z,74.36
2017-05-20T04:16:54.995Z,74.45
2017-05-20T04:17:55.605Z,73.88
2017-05-20T04:18:56.260Z,74.36
2017-05-20T04:19:56.872Z,74.36
2017-05-20T04:20:57.482Z,74.17
2017-05-20T04:21:58.090Z,74.26
2017-05-20T04:22:58.695Z,74.17
2017-05-20T04:23:59.351Z,74.36
2017-05-20T04:24:59.962Z,74.26
2017-05-20T04:26:00.570Z,74.17
2017-05-20T04:27:01.177Z,74.07
2017-05-20T04:28:01.791Z,74.26
2017-05-20T04:29:02.394Z,74.26
2017-05-20T04:30:03.000Z,73.79
2017-05-20T04:31:03.607Z,73.50
2017-05-20T04:32:04.214Z,73.79
2017-05-20T04:33:04.823Z,73.88
2017-05-20T04:34:05.432Z,73.79
2017-05-20T04:35:06.038Z,73.98
2017-05-20T04:36:06.645Z,73.79
2017-05-20T04:37:07.254Z,73.79
2017-05-20T04:38:07.861Z,73.79
2017-05-20T04:39:08.522Z,73.50
2017-05-20T04:40:09.159Z,73.32
2017-05-20T04:41:09.770Z,73.60
2017-05-20T04:42:10.410Z,73.50
2017-05-20T04:43:11.015Z,73.60
2017-05-20T04:44:11.680Z,73.69
2017-05-20T04:45:12.284Z,73.32
2017-05-20T04:46:12.897Z,73.79
2017-05-20T04:47:13.537Z,73.88
2017-05-20T04:48:14.143Z,73.50
2017-05-20T04:49:14.750Z,73.69
2017-05-20T04:50:15.358Z,74.26
2017-05-20T04:51:15.965Z,73.50
2017-05-20T04:52:16.571Z,73.60
2017-05-20T04:53:17.179Z,73.50
2017-05-20T04:54:17.842Z,73.50
2017-05-20T04:55:18.448Z,73.79
2017-05-20T04:56:19.088Z,73.88
2017-05-20T04:57:19.694Z,73.32
2017-05-20T04:58:20.302Z,73.69
2017-05-20T04:59:20.959Z,73.60
2017-05-20T05:00:21.572Z,73.60
2017-05-20T05:01:22.178Z,73.32
2017-05-20T05:02:22.787Z,73.50
2017-05-20T05:03:23.394Z,73.32
2017-05-20T05:04:24.000Z,73.60
2017-05-20T05:05:24.607Z,73.50
2017-05-20T05:06:25.221Z,73.41
2017-05-20T05:07:25.825Z,73.13
2017-05-20T05:08:26.438Z,73.13
2017-05-20T05:09:27.043Z,73.32
2017-05-20T05:10:27.652Z,73.03
2017-05-20T05:11:28.260Z,73.13
2017-05-20T05:12:28.919Z,73.03
2017-05-20T05:13:29.472Z,73.13
2017-05-20T05:14:30.118Z,73.22
2017-05-20T05:15:30.723Z,73.13
2017-05-20T05:16:31.336Z,73.13
2017-05-20T05:17:31.940Z,73.41
2017-05-20T05:18:32.547Z,73.41
2017-05-20T05:19:33.154Z,73.03
2017-05-20T05:20:33.769Z,73.13
2017-05-20T05:21:34.375Z,72.94
2017-05-20T05:22:34.987Z,72.94
2017-05-20T05:23:35.598Z,73.13
2017-05-20T05:24:36.202Z,73.13
2017-05-20T05:25:36.810Z,72.94
2017-05-20T05:26:37.416Z,72.94
2017-05-20T05:27:38.024Z,73.03
2017-05-20T05:28:38.630Z,73.03
2017-05-20T05:29:39.296Z,72.85
2017-05-20T05:30:39.901Z,72.85
2017-05-20T05:31:40.512Z,72.66
2017-05-20T05:32:41.117Z,72.75
2017-05-20T05:33:41.726Z,72.66
2017-05-20T05:34:42.392Z,72.75
2017-05-20T05:35:43.035Z,73.03
2017-05-20T05:36:43.647Z,73.03
2017-05-20T05:37:44.285Z,73.13
2017-05-20T05:38:44.900Z,73.50
2017-05-20T05:39:45.558Z,73.79
2017-05-20T05:40:46.166Z,73.32
2017-05-20T05:41:46.778Z,74.36
2017-05-20T05:42:47.388Z,74.26
2017-05-20T05:43:48.033Z,74.55
2017-05-20T05:44:48.693Z,74.36
2017-05-20T05:45:49.302Z,74.36
2017-05-20T05:46:49.910Z,74.26
2017-05-20T05:47:50.520Z,74.45
2017-05-20T05:48:51.130Z,74.45
2017-05-20T05:49:51.795Z,74.26
2017-05-20T05:50:52.402Z,74.87
2017-05-20T05:51:53.017Z,74.77
2017-05-20T05:52:53.625Z,74.58
2017-05-20T05:53:54.236Z,74.77
2017-05-20T05:54:54.851Z,74.77
2017-05-20T05:55:55.459Z,74.77
2017-05-20T05:56:56.072Z,74.77
2017-05-20T05:57:56.678Z,74.77
2017-05-20T05:58:57.291Z,74.49
2017-05-20T05:59:57.957Z,74.87
2017-05-20T06:00:58.562Z,74.68
2017-05-20T06:01:59.172Z,74.77
2017-05-20T06:02:59.780Z,74.77
2017-05-20T06:04:00.425Z,74.68
2017-05-20T06:05:01.085Z,74.68
2017-05-20T06:06:01.696Z,74.96
2017-05-20T06:07:02.307Z,74.77
2017-05-20T06:08:02.921Z,74.49
2017-05-20T06:09:03.533Z,74.68
2017-05-20T06:10:04.198Z,74.68
2017-05-20T06:11:04.806Z,74.87
2017-05-20T06:12:05.422Z,74.49
2017-05-20T06:13:06.025Z,74.96
2017-05-20T06:14:06.635Z,74.68
2017-05-20T06:15:07.297Z,74.77
2017-05-20T06:16:07.906Z,74.77
2017-05-20T06:17:08.518Z,74.87
2017-05-20T06:18:09.128Z,74.68
2017-05-20T06:19:09.737Z,74.68
2017-05-20T06:20:10.406Z,75.34
2017-05-20T06:21:11.009Z,75.24
2017-05-20T06:22:11.619Z,75.81
2017-05-20T06:23:12.234Z,75.53
2017-05-20T06:24:12.841Z,75.62
2017-05-20T06:25:13.452Z,76.19
2017-05-20T06:26:14.070Z,76.29
2017-05-20T06:27:14.678Z,75.72
2017-05-20T06:28:15.288Z,75.91
2017-05-20T06:29:15.903Z,75.72
2017-05-20T06:30:16.552Z,76.00
2017-05-20T06:31:17.160Z,76.19
2017-05-20T06:32:17.771Z,75.81
2017-05-20T06:33:18.380Z,75.62
2017-05-20T06:34:19.023Z,75.91
2017-05-20T06:35:19.684Z,75.81
2017-05-20T06:36:20.293Z,75.62
2017-05-20T06:37:20.902Z,75.91
2017-05-20T06:38:21.513Z,75.81
2017-05-20T06:39:22.124Z,75.81
2017-05-20T06:40:22.733Z,75.34
2017-05-20T06:41:23.345Z,76.00
2017-05-20T06:42:23.954Z,75.81
2017-05-20T06:43:24.569Z,75.62
2017-05-20T06:44:25.178Z,75.62
2017-05-20T06:45:25.789Z,76.00
2017-05-20T06:46:26.398Z,75.62
2017-05-20T06:47:27.008Z,75.91
2017-05-20T06:48:27.622Z,75.91
2017-05-20T06:49:28.236Z,75.62
2017-05-20T06:50:28.843Z,75.72
2017-05-20T06:51:29.453Z,76.00
2017-05-20T06:52:30.063Z,76.29
2017-05-20T06:53:30.673Z,76.38
2017-05-20T06:54:31.289Z,76.19
2017-05-20T06:55:31.895Z,76.29
2017-05-20T06:56:32.511Z,76.00
2017-05-20T06:57:33.118Z,76.48
2017-05-20T06:58:33.726Z,76.57
2017-05-20T06:59:34.342Z,76.19
2017-05-20T07:00:35.004Z,76.10
2017-05-20T07:01:35.612Z,76.38
2017-05-20T07:02:36.226Z,76.57
2017-05-20T07:03:36.832Z,76.86
2017-05-20T07:04:37.448Z,76.95
2017-05-20T07:05:38.055Z,76.86
2017-05-20T07:06:38.669Z,76.48
2017-05-20T07:07:39.278Z,76.19
2017-05-20T07:08:39.888Z,76.29
2017-05-20T07:09:40.497Z,76.29
2017-05-20T07:10:41.157Z,75.72
2017-05-20T07:11:41.773Z,75.62
2017-05-20T07:12:42.417Z,75.62
2017-05-20T07:13:43.032Z,76.19
2017-05-20T07:14:43.644Z,76.38
2017-05-20T07:15:44.301Z,76.48
2017-05-20T07:16:44.912Z,76.00
2017-05-20T07:17:45.523Z,75.72
2017-05-20T07:18:46.132Z,75.24
2017-05-20T07:19:46.742Z,75.15
2017-05-20T07:20:47.351Z,75.15
2017-05-20T07:21:47.960Z,75.72
2017-05-20T07:22:48.568Z,76.00
2017-05-20T07:23:49.178Z,76.10
2017-05-20T07:24:49.788Z,76.29
2017-05-20T07:25:50.455Z,75.91
2017-05-20T07:26:51.060Z,75.91
2017-05-20T07:27:51.673Z,76.29
2017-05-20T07:28:52.284Z,75.91
2017-05-20T07:29:52.893Z,76.00
2017-05-20T07:30:53.551Z,76.19
2017-05-20T07:31:54.193Z,76.38
2017-05-20T07:32:54.803Z,76.38
2017-05-20T07:33:55.412Z,76.38
2017-05-20T07:34:56.021Z,76.10
2017-05-20T07:35:56.680Z,76.29
2017-05-20T07:36:57.298Z,76.38
2017-05-20T07:37:57.902Z,76.48
2017-05-20T07:38:58.514Z,76.80
2017-05-20T07:39:59.129Z,76.99
2017-05-20T07:40:59.744Z,76.89
2017-05-20T07:42:00.354Z,76.99
2017-05-20T07:43:00.961Z,76.42
2017-05-20T07:44:01.574Z,76.14
2017-05-20T07:45:02.214Z,76.32
2017-05-20T07:46:02.829Z,76.51
2017-05-20T07:47:03.436Z,76.51
2017-05-20T07:48:04.078Z,76.23
2017-05-20T07:49:04.687Z,76.42
2017-05-20T07:50:05.302Z,76.70
2017-05-20T07:51:05.913Z,76.32
2017-05-20T07:52:06.523Z,76.51
2017-05-20T07:53:07.138Z,76.42
2017-05-20T07:54:07.746Z,76.42
2017-05-20T07:55:08.362Z,76.99
2017-05-20T07:56:08.970Z,76.23
2017-05-20T07:57:09.581Z,76.23
2017-05-20T07:58:10.191Z,76.42
2017-05-20T07:59:10.801Z,76.70
2017-05-20T08:00:11.416Z,76.70
2017-05-20T08:01:12.023Z,77.03
2017-05-20T08:02:12.640Z,76.84
2017-05-20T08:03:13.247Z,76.93
2017-05-20T08:04:13.864Z,76.65
2017-05-20T08:05:14.471Z,77.03
2017-05-20T08:06:15.091Z,76.65
2017-05-20T08:07:15.731Z,77.22
2017-05-20T08:08:16.342Z,77.22
2017-05-20T08:09:16.960Z,76.74
2017-05-20T08:10:17.567Z,77.22
2017-05-20T08:11:18.228Z,76.93
2017-05-20T08:12:18.837Z,76.93
2017-05-20T08:13:19.456Z,76.17
2017-05-20T08:14:20.064Z,76.31
2017-05-20T08:15:20.674Z,76.21
2017-05-20T08:16:21.291Z,76.40
2017-05-20T08:17:21.905Z,76.59
2017-05-20T08:18:22.516Z,76.21
2017-05-20T08:19:23.126Z,76.27
2017-05-20T08:20:23.737Z,76.50
2017-05-20T08:21:24.348Z,76.27
2017-05-20T08:22:24.964Z,76.27
2017-05-20T08:23:25.577Z,76.46
2017-05-20T08:24:26.195Z,76.27
2017-05-20T08:25:26.803Z,76.36
2017-05-20T08:26:27.498Z,76.46
2017-05-20T08:27:28.107Z,76.36
2017-05-20T08:28:28.718Z,76.93
2017-05-20T08:29:29.329Z,76.84
2017-05-20T08:30:29.941Z,77.06
2017-05-20T08:31:30.607Z,77.50
2017-05-20T08:32:31.218Z,77.25
2017-05-20T08:33:31.826Z,76.65
2017-05-20T08:34:32.437Z,77.35
2017-05-20T08:35:33.049Z,77.83
2017-05-20T08:36:33.711Z,77.92
2017-05-20T08:37:34.321Z,77.83
2017-05-20T08:38:34.936Z,77.73
2017-05-20T08:39:35.545Z,77.73
2017-05-20T08:40:36.159Z,77.45
2017-05-20T08:41:36.771Z,77.54
2017-05-20T08:42:37.381Z,78.02
2017-05-20T08:43:37.999Z,78.77
2017-05-20T08:44:38.607Z,78.67
2017-05-20T08:45:39.222Z,78.39
2017-05-20T08:46:39.882Z,78.20
2017-05-20T08:47:40.499Z,77.86
2017-05-20T08:48:41.106Z,77.86
2017-05-20T08:49:41.717Z,77.39
2017-05-20T08:50:42.334Z,77.77
2017-05-20T08:51:42.943Z,78.43
2017-05-20T08:52:43.559Z,76.82
2017-05-20T08:53:44.169Z,77.29
2017-05-20T08:54:44.782Z,77.77
2017-05-20T08:55:45.389Z,77.58
2017-05-20T08:56:46.057Z,77.39
2017-05-20T08:57:46.665Z,77.39
2017-05-20T08:58:47.276Z,77.01
2017-05-20T08:59:47.893Z,77.29
2017-05-20T09:00:48.500Z,76.82
2017-05-20T09:01:49.165Z,77.01
2017-05-20T09:02:49.810Z,77.29
2017-05-20T09:03:50.427Z,76.92
2017-05-20T09:04:51.037Z,76.54
2017-05-20T09:05:51.646Z,76.44
2017-05-20T09:06:52.307Z,75.49
2017-05-20T09:07:52.927Z,75.31
2017-05-20T09:08:53.540Z,75.59
2017-05-20T09:09:54.155Z,75.11
2017-05-20T09:10:54.763Z,75.68
2017-05-20T09:11:55.413Z,76.15
2017-05-20T09:12:56.030Z,75.96
2017-05-20T09:13:56.639Z,75.49
2017-05-20T09:14:57.258Z,76.15
2017-05-20T09:15:57.866Z,76.34
2017-05-20T09:16:58.483Z,76.67
2017-05-20T09:17:59.093Z,76.01
2017-05-20T09:18:59.706Z,76.01
2017-05-20T09:20:00.321Z,76.39
2017-05-20T09:21:00.929Z,76.39
2017-05-20T09:22:01.593Z,75.91
2017-05-20T09:23:02.203Z,76.48
2017-05-20T09:24:02.822Z,76.86
2017-05-20T09:25:03.432Z,76.29
2017-05-20T09:26:04.042Z,76.39
2017-05-20T09:27:04.654Z,75.91
2017-05-20T09:28:05.300Z,76.29
2017-05-20T09:29:05.911Z,76.01
2017-05-20T09:30:06.528Z,75.72
2017-05-20T09:31:07.138Z,75.91
2017-05-20T09:32:07.803Z,76.01
2017-05-20T09:33:08.447Z,76.57
2017-05-20T09:34:09.059Z,76.67
2017-05-20T09:35:09.672Z,77.33
2017-05-20T09:36:10.283Z,77.05
2017-05-20T09:37:10.952Z,76.67
2017-05-20T09:38:11.565Z,76.57
2017-05-20T09:39:12.175Z,76.20
2017-05-20T09:40:12.787Z,75.34
2017-05-20T09:41:13.400Z,75.91
2017-05-20T09:42:14.011Z,76.48
2017-05-20T09:43:14.630Z,76.20
2017-05-20T09:44:15.276Z,76.90
2017-05-20T09:45:15.889Z,75.76
2017-05-20T09:46:16.499Z,75.38
2017-05-20T09:47:17.193Z,74.90
2017-05-20T09:48:17.806Z,74.90
2017-05-20T09:49:18.419Z,74.62
2017-05-20T09:50:19.030Z,75.67
2017-05-20T09:51:19.645Z,76.42
2017-05-20T09:52:20.307Z,74.71
2017-05-20T09:53:20.924Z,72.91
2017-05-20T09:54:21.571Z,73.00
2017-05-20T09:55:22.182Z,73.57
2017-05-20T09:56:22.795Z,74.15
2017-05-20T09:57:23.457Z,75.09
2017-05-20T09:58:24.069Z,75.47
2017-05-20T09:59:24.686Z,75.09
2017-05-20T10:00:25.301Z,74.52
2017-05-20T10:01:25.917Z,73.99
2017-05-20T10:02:26.528Z,73.80
2017-05-20T10:03:27.141Z,73.52
2017-05-20T10:04:27.761Z,73.10
2017-05-20T10:05:28.371Z,71.48
2017-05-20T10:06:28.988Z,71.39
2017-05-20T10:07:29.648Z,72.25
2017-05-20T10:08:30.260Z,72.91
2017-05-20T10:09:30.874Z,73.10
2017-05-20T10:10:31.489Z,72.75
2017-05-20T10:11:32.101Z,72.95
2017-05-20T10:12:32.745Z,73.42
2017-05-20T10:13:33.363Z,72.66
2017-05-20T10:14:33.977Z,72.38
2017-05-20T10:15:34.625Z,72.19
2017-05-20T10:16:35.243Z,71.43
2017-05-20T10:17:35.905Z,71.23
2017-05-20T10:18:36.549Z,71.71
2017-05-20T10:19:37.168Z,70.86
2017-05-20T10:20:37.784Z,71.46
2017-05-20T10:21:38.395Z,71.18
2017-05-20T10:22:39.014Z,70.38
2017-05-20T10:23:39.659Z,70.23
2017-05-20T10:24:40.277Z,71.18
2017-05-20T10:25:40.889Z,70.79
2017-05-20T10:26:41.508Z,70.70
2017-05-20T10:27:42.168Z,70.45
2017-05-20T10:28:42.781Z,70.17
2017-05-20T10:29:43.395Z,70.64
2017-05-20T10:30:44.008Z,69.69
2017-05-20T10:31:44.654Z,69.88
2017-05-20T10:32:45.267Z,69.50
2017-05-20T10:33:45.884Z,68.36
2017-05-20T10:34:46.494Z,67.98
2017-05-20T10:35:47.109Z,67.41
2017-05-20T10:36:47.723Z,67.50
2017-05-20T10:37:48.372Z,68.07
2017-05-20T10:38:48.985Z,68.55
2017-05-20T10:39:49.599Z,68.55
2017-05-20T10:40:50.211Z,68.84
2017-05-20T10:41:50.826Z,68.65
2017-05-20T10:42:51.491Z,68.84
2017-05-20T10:43:52.104Z,68.55
2017-05-20T10:44:52.716Z,68.36
2017-05-20T10:45:53.330Z,67.22
2017-05-20T10:46:53.944Z,66.74
2017-05-20T10:47:54.606Z,66.08
2017-05-20T10:48:55.224Z,66.36
2017-05-20T10:49:55.841Z,67.13
2017-05-20T10:50:56.459Z,67.60
2017-05-20T10:51:57.069Z,67.41
2017-05-20T10:52:57.733Z,67.22
2017-05-20T10:53:58.348Z,65.32
2017-05-20T10:54:58.963Z,65.51
2017-05-20T10:55:59.577Z,66.65
2017-05-20T10:57:00.195Z,66.65
2017-05-20T10:58:00.805Z,65.22
2017-05-20T10:59:01.426Z,65.22
2017-05-20T11:00:02.039Z,65.06
2017-05-20T11:01:02.651Z,65.54
2017-05-20T11:02:03.265Z,66.68
2017-05-20T11:03:03.879Z,66.49
2017-05-20T11:04:04.495Z,64.59
2017-05-20T11:05:05.112Z,63.83
2017-05-20T11:06:05.730Z,62.78
2017-05-20T11:07:06.341Z,62.69
2017-05-20T11:08:06.957Z,62.88
2017-05-20T11:09:07.575Z,61.26
2017-05-20T11:10:08.191Z,61.35
2017-05-20T11:11:08.805Z,61.74
2017-05-20T11:12:09.418Z,62.59
2017-05-20T11:13:10.084Z,62.30
2017-05-20T11:14:10.703Z,62.12
2017-05-20T11:15:11.345Z,61.55
2017-05-20T11:16:11.959Z,61.93
2017-05-20T11:17:12.576Z,62.21
2017-05-20T11:18:13.198Z,61.64
2017-05-20T11:19:13.810Z,61.07
2017-05-20T11:20:14.427Z,60.50
2017-05-20T11:21:15.040Z,60.69
2017-05-20T11:22:15.657Z,60.50
2017-05-20T11:23:16.275Z,62.21
2017-05-20T11:24:16.896Z,61.64
2017-05-20T11:25:17.507Z,60.50
2017-05-20T11:26:18.122Z,59.83
2017-05-20T11:27:18.738Z,60.41
2017-05-20T11:28:19.394Z,60.50
2017-05-20T11:29:20.009Z,60.21
2017-05-20T11:30:20.629Z,60.41
2017-05-20T11:31:21.247Z,60.12
2017-05-20T11:32:21.860Z,60.91
2017-05-20T11:33:22.474Z,59.67
2017-05-20T11:34:23.090Z,58.25
2017-05-20T11:35:23.703Z,57.55
2017-05-20T11:36:24.321Z,58.79
2017-05-20T11:37:24.939Z,59.27
2017-05-20T11:38:25.607Z,59.45
2017-05-20T11:39:26.224Z,58.88
2017-05-20T11:40:26.869Z,58.53
2017-05-20T11:41:27.490Z,58.88
2017-05-20T11:42:28.102Z,59.39
2017-05-20T11:43:28.768Z,58.72
2017-05-20T11:44:29.385Z,58.91
2017-05-20T11:45:30.035Z,59.77
2017-05-20T11:46:30.691Z,60.63
2017-05-20T11:47:31.303Z,60.94
2017-05-20T11:48:31.977Z,60.18
2017-05-20T11:49:32.591Z,59.23
2017-05-20T11:50:33.216Z,58.56
2017-05-20T11:51:33.831Z,57.99
2017-05-20T11:52:34.453Z,58.18
2017-05-20T11:53:35.117Z,58.65
2017-05-20T11:54:35.737Z,57.42
2017-05-20T11:55:36.352Z,57.10
2017-05-20T11:56:37.087Z,57.87
2017-05-20T11:57:37.713Z,57.87
2017-05-20T11:58:38.329Z,58.25
2017-05-20T11:59:38.944Z,57.55
2017-05-20T12:00:39.559Z,57.65
2017-05-20T12:01:40.172Z,58.03
2017-05-20T12:02:40.788Z,59.27
2017-05-20T12:03:41.453Z,59.36
2017-05-20T12:04:42.075Z,60.53
2017-05-20T12:05:42.693Z,58.62
2017-05-20T12:06:43.306Z,56.72
2017-05-20T12:07:43.921Z,58.34
2017-05-20T12:08:44.588Z,58.53
2017-05-20T12:09:45.204Z,58.72
2017-05-20T12:10:45.821Z,57.67
2017-05-20T12:11:46.438Z,58.65
2017-05-20T12:12:47.054Z,57.51
2017-05-20T12:13:47.671Z,55.32
2017-05-20T12:14:48.292Z,55.20
2017-05-20T12:15:48.908Z,56.15
2017-05-20T12:16:49.519Z,56.41
2017-05-20T12:17:50.165Z,56.98
2017-05-20T12:18:50.781Z,56.51
2017-05-20T12:19:51.399Z,56.51
2017-05-20T12:20:52.012Z,57.33
2017-05-20T12:21:52.628Z,57.52
2017-05-20T12:22:53.241Z,57.52
2017-05-20T12:23:53.906Z,58.47
2017-05-20T12:24:54.523Z,57.81
2017-05-20T12:25:55.138Z,57.52
2017-05-20T12:26:55.753Z,57.24
2017-05-20T12:27:56.368Z,56.76
2017-05-20T12:28:57.150Z,56.95
2017-05-20T12:29:57.784Z,56.85
2017-05-20T12:30:58.399Z,57.24
2017-05-20T12:31:59.020Z,56.95
2017-05-20T12:32:59.633Z,57.90
2017-05-20T12:34:00.246Z,57.62
2017-05-20T12:35:00.860Z,57.33
2017-05-20T12:36:01.476Z,57.62
2017-05-20T12:37:02.092Z,57.74
2017-05-20T12:38:02.704Z,58.59
2017-05-20T12:39:03.367Z,58.31
2017-05-20T12:40:03.988Z,58.59
2017-05-20T12:41:04.602Z,58.12
2017-05-20T12:42:05.214Z,57.07
2017-05-20T12:43:05.827Z,56.79
2017-05-20T12:44:06.448Z,56.88
2017-05-20T12:45:07.059Z,57.26
2017-05-20T12:46:07.708Z,56.70
2017-05-20T12:47:08.318Z,56.31
2017-05-20T12:48:08.932Z,57.26
2017-05-20T12:49:09.597Z,56.88
2017-05-20T12:50:10.211Z,56.60
2017-05-20T12:51:10.826Z,56.12
2017-05-20T12:52:11.441Z,56.79
2017-05-20T12:53:12.054Z,56.41
2017-05-20T12:54:12.676Z,56.03
2017-05-20T12:55:13.288Z,56.60
2017-05-20T12:56:13.902Z,56.92
2017-05-20T12:57:14.516Z,56.92
2017-05-20T12:58:15.132Z,56.15
2017-05-20T12:59:15.795Z,56.15
2017-05-20T13:00:16.450Z,55.96